Decoded Metar for YSTW (TAMWORTH in AUSTRALIA) (IATA:TMW) | Meteo·Mobile Aviation Weather
aviador You're here:

YSTW Decoded Metar

TAMWORTH in AUSTRALIA
Report Time2018-08-21 12:00:00
UTC Time2018-08-21 12:12:10
Flight Rules vfr VFR
Wind330° at 05 kt
W.Decomp.*RWY 30: 4.7 kt HW 1.6 kt RCW
RWY 36: 3.8 kt HW 3.3 kt LCW
RWY 24: 1.0 kt HW 4.9 kt RCW
W.Rank330° ranks 10
Current wind is below 330° avg. (6.7)
Visibility9999 m
Phenomena:N/A
Clouds:N/A
Expected CloudBase > 4,800 ft AGL from Temp-Dew spread
CeilingNone
Temp07°C (ISA -5)
Dew Point-5°C (42% RH)
AAT2.6°C
QNH1017 hPa
Density Alt633 ft
Elevation1,345 ft
Report Wrong Elevation
Raw Report
YSTW 211200Z AUTO 33005KT 9999 // NCD 07/M05 Q1017=

Extra information for YSTW:More info

Metar Taf Metar & Taf Last 4 Metars F.Rules Stats Wind Profile Meteogram Temp Stats Airport Information Weather charts Add Link Nearby VenuesMetar ALERT Operation Metar Decoded Social comments